Time;durP1;ratioP1;P1;durP2;ratioP2;P2;SDS_P1;SDS_P2;PMS_P1;PMS_P2;Temp;Humidity;BMP_temperature;BMP_pressure;BME280_temperature;BME280_humidity;BME280_pressure;Samples;Min_cycle;Max_cycle;Signal;HPM_P1;HPM_P2
2022/06/29 00:00:02;;;;;;;9.40;8.40;;;;;;;17.51;71.45;97612.14;110005;1250;68366;-74
2022/06/29 00:02:57;;;;;;;9.20;8.30;;;;;;;17.49;74.93;97617.53;109961;1250;68687;-73
2022/06/29 00:05:29;;;;;;;12.10;10.80;;;;;;;17.47;75.03;97615.59;110193;1247;59771;-72
2022/06/29 00:07:59;;;;;;;12.20;10.60;;;;;;;17.45;74.33;97616.30;110199;1247;59624;-72
2022/06/29 00:10:38;;;;;;;12.50;10.10;;;;;;;17.46;74.24;97616.00;109654;1250;70868;-71
2022/06/29 00:13:08;;;;;;;9.30;8.40;;;;;;;17.51;74.05;97612.74;110238;1247;68636;-71
2022/06/29 00:15:39;;;;;;;9.30;8.30;;;;;;;17.53;74.17;97619.02;110047;1247;68480;-74
2022/06/29 00:18:09;;;;;;;9.70;7.80;;;;;;;17.53;74.42;97617.80;109996;1247;59728;-72
2022/06/29 00:20:39;;;;;;;9.30;8.40;;;;;;;17.48;75.47;97620.98;109955;1250;59675;-74
2022/06/29 00:23:10;;;;;;;8.50;7.70;;;;;;;17.44;74.62;97618.40;110206;1247;71539;-69
2022/06/29 00:25:41;;;;;;;8.20;7.40;;;;;;;17.39;73.98;97615.11;110026;1247;68256;-74
2022/06/29 00:28:11;;;;;;;9.70;8.70;;;;;;;17.35;74.60;97614.98;110191;1247;69499;-71
2022/06/29 00:30:41;;;;;;;10.60;8.90;;;;;;;17.30;73.91;97613.30;110005;1247;59672;-76
2022/06/29 00:33:11;;;;;;;9.80;8.80;;;;;;;17.25;74.36;97612.26;110166;1247;59743;-72
2022/06/29 00:35:42;;;;;;;9.70;8.40;;;;;;;17.21;73.48;97609.24;110211;1247;71517;-74
2022/06/29 00:38:13;;;;;;;12.80;11.50;;;;;;;17.20;74.13;97607.31;109946;1250;67871;-73
2022/06/29 00:40:44;;;;;;;11.90;10.50;;;;;;;17.14;76.02;97605.04;109841;1247;68454;-72
2022/06/29 00:43:15;;;;;;;11.10;9.30;;;;;;;17.05;76.81;97606.04;110191;1247;59675;-71
2022/06/29 00:45:45;;;;;;;9.40;7.90;;;;;;;16.98;75.97;97601.48;110021;1248;59712;-76
2022/06/29 00:48:15;;;;;;;10.20;9.30;;;;;;;16.96;75.31;97601.91;110012;1250;71535;-73
2022/06/29 00:50:46;;;;;;;9.70;8.30;;;;;;;16.92;75.21;97603.27;110164;1247;68639;-69
2022/06/29 00:53:18;;;;;;;10.70;9.70;;;;;;;16.88;76.14;97605.28;110153;1247;67767;-74
2022/06/29 00:55:50;;;;;;;10.00;8.00;;;;;;;16.82;75.92;97603.40;109827;1249;59741;-77
2022/06/29 00:58:23;;;;;;;11.00;9.00;;;;;;;16.78;76.16;97599.33;110254;1247;59703;-72
2022/06/29 01:00:55;;;;;;;9.00;7.10;;;;;;;16.78;75.12;97600.02;109977;1248;71463;-75
2022/06/29 01:03:26;;;;;;;8.10;6.80;;;;;;;16.77;73.84;97597.30;110165;1247;67752;-75
2022/06/29 01:05:55;;;;;;;8.60;7.80;;;;;;;16.75;73.48;97601.42;110104;1247;69364;-72
2022/06/29 01:08:26;;;;;;;8.90;8.10;;;;;;;16.70;73.34;97599.13;110202;1247;59715;-75
2022/06/29 01:10:56;;;;;;;8.50;7.60;;;;;;;16.67;73.27;97592.81;109931;1247;59704;-73
2022/06/29 01:13:26;;;;;;;9.60;8.60;;;;;;;16.63;73.28;97590.33;110158;1247;71454;-70
2022/06/29 01:15:56;;;;;;;9.30;8.10;;;;;;;16.59;73.25;97592.84;110015;1250;68496;-74
2022/06/29 01:18:26;;;;;;;8.30;7.50;;;;;;;16.56;73.01;97590.33;110143;1247;69203;-73
2022/06/29 01:20:56;;;;;;;8.40;7.50;;;;;;;16.53;73.37;97587.05;109900;1247;59706;-74
2022/06/29 01:23:27;;;;;;;;;;;;;;;16.52;73.60;97584.30;109830;1250;59750;-71
2022/06/29 01:25:57;;;;;;;9.30;8.50;;;;;;;16.51;73.22;97586.77;110110;1249;71343;-73
2022/06/29 01:28:27;;;;;;;8.60;7.90;;;;;;;16.51;73.52;97582.02;110183;1247;67783;-73
2022/06/29 01:30:59;;;;;;;9.70;7.70;;;;;;;16.51;73.14;97574.80;109989;1249;68556;-75
2022/06/29 01:33:30;;;;;;;9.90;7.90;;;;;;;16.49;73.31;97576.20;109954;1248;59744;-71
2022/06/29 01:36:01;;;;;;;6.50;5.80;;;;;;;16.47;73.58;97574.31;110164;1249;59781;-76
2022/06/29 01:38:33;;;;;;;7.80;7.10;;;;;;;16.47;73.56;97576.45;109912;1250;71779;-74
2022/06/29 01:41:08;;;;;;;9.90;8.90;;;;;;;16.45;74.95;97574.67;110020;1247;67787;-71
2022/06/29 01:43:38;;;;;;;8.00;7.20;;;;;;;16.41;73.79;97573.50;110250;1247;68667;-73
2022/06/29 01:46:09;;;;;;;9.50;8.60;;;;;;;16.36;74.71;97570.08;110029;1247;60113;-74
2022/06/29 01:48:39;;;;;;;7.90;7.10;;;;;;;16.28;75.35;97563.21;109993;1247;59688;-73
2022/06/29 01:51:10;;;;;;;9.40;8.40;;;;;;;16.20;76.44;97563.11;110208;1246;70650;-77
2022/06/29 01:53:40;;;;;;;8.10;7.30;;;;;;;16.12;76.83;97559.30;110215;1247;68625;-78
2022/06/29 01:56:10;;;;;;;9.00;8.10;;;;;;;16.07;75.23;97559.56;110202;1247;69789;-76
2022/06/29 01:58:40;;;;;;;10.20;9.20;;;;;;;16.00;76.19;97556.52;109874;1247;59658;-76
2022/06/29 02:01:10;;;;;;;10.00;9.10;;;;;;;15.93;77.33;97558.59;110211;1247;59682;-77
2022/06/29 02:03:40;;;;;;;11.30;9.40;;;;;;;15.86;77.24;97560.45;110186;1247;71589;-79
2022/06/29 02:06:12;;;;;;;10.70;9.60;;;;;;;15.80;77.50;97561.16;109988;1247;67644;-77
2022/06/29 02:08:42;;;;;;;8.50;7.70;;;;;;;15.77;77.79;97561.29;110189;1249;69414;-79
2022/06/29 02:11:11;;;;;;;;;;;;;;;15.76;76.87;97560.48;110188;1247;60450;-79
2022/06/29 02:13:41;;;;;;;8.30;7.50;;;;;;;15.74;76.70;97560.84;110239;1247;59726;-77
2022/06/29 02:16:12;;;;;;;8.50;7.40;;;;;;;15.71;76.08;97561.12;110219;1247;70600;-71
2022/06/29 02:18:42;;;;;;;;;;;;;;;15.68;76.49;97562.66;109979;1250;67797;-77
2022/06/29 02:21:13;;;;;;;9.00;8.10;;;;;;;15.64;77.06;97565.82;110185;1245;69392;-71
2022/06/29 02:23:45;;;;;;;6.90;6.20;;;;;;;15.59;78.86;97560.76;109875;1248;59753;-74
2022/06/29 02:26:15;;;;;;;9.60;7.40;;;;;;;15.56;76.62;97558.09;110227;1247;59681;-75
2022/06/29 02:28:45;;;;;;;7.40;6.60;;;;;;;15.53;77.11;97554.14;109996;1247;70499;-70
2022/06/29 02:36:50;;;;;;;9.20;8.10;;;;;;;15.43;78.80;97559.79;109986;1248;59887;-78
2022/06/29 02:39:21;;;;;;;7.90;7.10;;;;;;;15.38;80.05;97557.27;110017;1247;59710;-77
2022/06/29 02:41:50;;;;;;;;;;;;;;;15.33;79.09;97560.73;109895;1248;70792;-73
2022/06/29 02:44:20;;;;;;;9.30;8.10;;;;;;;15.26;80.22;97566.17;110203;1247;67792;-77
2022/06/29 02:46:50;;;;;;;9.70;8.70;;;;;;;15.21;79.29;97568.74;110132;1247;68493;-72
2022/06/29 02:49:22;;;;;;;8.70;7.90;;;;;;;15.17;78.26;97566.84;109914;1247;59750;-76
2022/06/29 02:51:53;;;;;;;9.60;7.80;;;;;;;15.15;78.19;97565.63;110042;1247;59741;-77
2022/06/29 02:54:23;;;;;;;9.70;8.70;;;;;;;15.16;80.56;97568.89;109648;1250;71519;-72
2022/06/29 02:56:53;;;;;;;9.30;8.40;;;;;;;15.21;81.50;97571.19;109753;1250;67855;-73
2022/06/29 02:59:24;;;;;;;8.40;7.60;;;;;;;15.25;81.39;97573.48;110034;1247;68477;-76
2022/06/29 03:01:53;;;;;;;;;;;;;;;15.27;79.52;97573.96;109880;1249;59723;-74
2022/06/29 03:04:23;;;;;;;7.70;7.00;;;;;;;15.28;80.02;97572.14;110021;1248;59785;-74
2022/06/29 03:06:53;;;;;;;8.50;7.70;;;;;;;15.29;78.71;97576.07;110198;1247;70836;-78
2022/06/29 03:09:23;;;;;;;9.50;8.30;;;;;;;15.20;80.11;97584.08;110235;1248;68473;-77
2022/06/29 03:11:52;;;;;;;10.90;8.60;;;;;;;15.03;80.40;97586.52;109841;1247;67865;-79
2022/06/29 03:14:23;;;;;;;9.00;8.00;;;;;;;14.95;79.01;97588.82;110033;1249;59675;-76
2022/06/29 03:16:53;;;;;;;9.00;8.20;;;;;;;14.81;80.70;97585.48;110210;1247;59644;-75
2022/06/29 03:19:22;;;;;;;;;;;;;;;14.77;81.74;97579.09;110189;1249;71580;-77
2022/06/29 03:21:53;;;;;;;11.30;9.10;;;;;;;14.80;82.26;97577.16;110177;1247;68583;-79
2022/06/29 03:24:23;;;;;;;10.50;9.40;;;;;;;14.86;81.93;97576.25;110172;1247;68540;-73
2022/06/29 03:26:53;;;;;;;;;;;;;;;14.93;81.07;97573.40;110136;1247;59779;-77
2022/06/29 03:29:22;;;;;;;9.90;8.90;;;;;;;14.98;80.48;97570.06;110030;1249;59752;-75
2022/06/29 03:31:52;;;;;;;8.90;8.00;;;;;;;15.06;80.65;97570.34;110189;1248;71608;-82
2022/06/29 03:34:22;;;;;;;9.70;8.70;;;;;;;15.15;80.79;97569.60;110179;1249;67587;-76
2022/06/29 03:36:52;;;;;;;8.50;7.60;;;;;;;15.23;80.32;97564.39;110024;1249;69343;-74
2022/06/29 03:39:21;;;;;;;;;;;;;;;15.30;80.24;97558.52;110205;1247;59699;-77
2022/06/29 03:41:50;;;;;;;8.00;7.20;;;;;;;15.38;80.71;97556.69;110277;1247;59763;-81
2022/06/29 03:44:20;;;;;;;;;;;;;;;15.48;79.19;97553.39;110220;1247;71512;-73
2022/06/29 03:46:49;;;;;;;9.50;8.20;;;;;;;15.55;77.72;97545.68;110185;1247;68676;-74
2022/06/29 03:49:20;;;;;;;10.40;8.80;;;;;;;15.62;77.74;97545.40;110165;1247;69238;-76
2022/06/29 03:51:49;;;;;;;8.80;7.80;;;;;;;15.69;79.91;97539.64;110053;1250;59692;-80
2022/06/29 03:54:19;;;;;;;10.10;8.20;;;;;;;15.77;78.47;97540.55;110209;1247;59701;-77
2022/06/29 03:56:49;;;;;;;9.40;8.30;;;;;;;15.85;77.52;97536.10;110241;1247;70824;-74
2022/06/29 03:59:19;;;;;;;19.00;16.90;;;;;;;15.94;77.49;97535.95;110151;1247;67830;-75
2022/06/29 04:01:50;;;;;;;23.70;21.20;;;;;;;16.04;77.97;97541.36;110182;1247;68698;-65
2022/06/29 04:04:19;;;;;;;24.40;21.60;;;;;;;16.13;77.89;97540.38;110307;1247;59706;-75
2022/06/29 04:06:49;;;;;;;17.10;15.30;;;;;;;16.20;79.81;97536.18;110207;1247;59748;-65
2022/06/29 04:09:19;;;;;;;15.70;13.40;;;;;;;16.29;78.50;97536.41;110131;1248;71352;-75
2022/06/29 04:11:54;;;;;;;13.30;11.90;;;;;;;16.41;78.77;97529.50;109841;1247;67795;-78
2022/06/29 04:14:26;;;;;;;14.50;13.10;;;;;;;16.53;78.20;97522.67;110118;1247;69482;-78
2022/06/29 04:16:57;;;;;;;12.80;11.50;;;;;;;16.67;78.42;97518.02;110215;1247;59768;-77
2022/06/29 04:19:26;;;;;;;11.90;10.50;;;;;;;16.83;78.20;97517.97;110035;1248;59710;-72
2022/06/29 04:21:55;;;;;;;10.70;9.30;;;;;;;16.97;77.82;97517.67;110165;1247;70859;-75
2022/06/29 04:24:25;;;;;;;10.30;9.10;;;;;;;17.11;77.39;97513.20;110170;1248;66968;-73
2022/06/29 04:26:55;;;;;;;8.20;7.40;;;;;;;17.26;76.72;97514.92;109989;1247;68545;-70
2022/06/29 04:29:24;;;;;;;;;;;;;;;17.42;76.31;97515.15;110077;1250;59721;-70
2022/06/29 04:31:54;;;;;;;9.00;8.00;;;;;;;17.56;76.09;97517.42;110030;1247;59752;-68
2022/06/29 04:34:24;;;;;;;8.20;7.40;;;;;;;17.71;75.35;97511.93;109778;1250;71563;-72
2022/06/29 04:36:53;;;;;;;9.80;8.50;;;;;;;17.87;74.53;97512.07;110206;1247;67650;-74
2022/06/29 04:39:22;;;;;;;10.20;9.20;;;;;;;18.05;73.83;97516.76;110151;1247;68586;-72
2022/06/29 04:41:55;;;;;;;10.80;9.50;;;;;;;18.18;73.33;97520.38;110150;1248;59768;-70
2022/06/29 04:44:25;;;;;;;15.30;13.70;;;;;;;18.32;73.08;97526.02;109909;1247;59978;-71
2022/06/29 04:46:56;;;;;;;17.90;14.60;;;;;;;18.40;72.61;97524.11;110044;1247;71522;-73
2022/06/29 04:49:26;;;;;;;15.20;12.90;;;;;;;18.41;72.39;97522.59;110137;1247;68606;-76
2022/06/29 04:51:55;;;;;;;14.90;13.40;;;;;;;18.41;72.54;97525.96;110186;1247;68628;-75
2022/06/29 04:54:25;;;;;;;14.80;11.90;;;;;;;18.42;72.39;97526.16;109882;1250;59789;-74
2022/06/29 04:56:55;;;;;;;13.40;12.00;;;;;;;18.51;72.52;97526.88;110173;1248;59688;-75
2022/06/29 04:59:23;;;;;;;;;;;;;;;18.66;72.32;97527.67;110176;1247;71403;-71
2022/06/29 05:01:57;;;;;;;11.20;10.10;;;;;;;18.81;71.59;97527.11;110019;1247;67692;-73
2022/06/29 05:04:27;;;;;;;12.30;10.10;;;;;;;18.93;70.71;97533.34;109789;1250;69396;-71
2022/06/29 05:06:57;;;;;;;11.10;10.00;;;;;;;19.01;70.81;97541.42;110163;1247;60201;-74
2022/06/29 05:09:26;;;;;;;14.40;10.70;;;;;;;19.23;70.77;97539.84;110138;1247;59673;-74
2022/06/29 05:11:55;;;;;;;9.20;8.30;;;;;;;19.53;70.15;97537.30;110149;1247;70706;-66
2022/06/29 05:14:24;;;;;;;10.40;8.10;;;;;;;19.97;70.12;97539.98;110204;1247;66788;-64
2022/06/29 05:16:52;;;;;;;11.70;8.10;;;;;;;20.50;67.94;97544.42;110173;1247;69436;-68
2022/06/29 05:19:21;;;;;;;9.80;8.30;;;;;;;21.00;66.26;97546.44;109962;1250;59793;-71
2022/06/29 05:21:50;;;;;;;13.50;8.40;;;;;;;21.36;62.74;97548.91;109812;1249;59742;-66
2022/06/29 05:24:20;;;;;;;9.70;7.80;;;;;;;21.69;59.96;97552.48;110019;1247;70381;-67
2022/06/29 05:26:49;;;;;;;;;;;;;;;21.91;59.15;97554.39;110020;1247;68911;-68
2022/06/29 05:29:19;;;;;;;8.20;7.40;;;;;;;22.02;58.28;97558.23;109852;1248;69475;-68
2022/06/29 05:31:48;;;;;;;9.00;6.30;;;;;;;22.15;57.71;97564.36;110038;1247;59781;-66
2022/06/29 05:34:18;;;;;;;8.40;6.60;;;;;;;22.29;56.23;97566.76;110029;1246;59692;-65
2022/06/29 05:36:48;;;;;;;7.80;7.00;;;;;;;22.24;55.28;97566.65;110199;1247;70516;-65
2022/06/29 05:39:17;;;;;;;7.20;6.50;;;;;;;22.11;54.62;97561.66;109900;1250;68439;-71
2022/06/29 05:41:46;;;;;;;8.60;7.70;;;;;;;22.08;54.90;97562.34;110140;1247;68457;-65
2022/06/29 05:44:15;;;;;;;7.50;6.80;;;;;;;22.06;55.90;97560.08;109828;1247;60105;-66
2022/06/29 05:46:44;;;;;;;8.10;7.40;;;;;;;22.14;56.36;97562.52;110100;1247;59745;-71
2022/06/29 05:49:13;;;;;;;7.80;6.70;;;;;;;22.20;55.64;97557.27;110100;1247;72409;-64
2022/06/29 05:51:43;;;;;;;8.60;6.80;;;;;;;22.24;56.07;97561.71;109979;1247;68628;-71
2022/06/29 05:54:15;;;;;;;7.90;6.60;;;;;;;22.33;55.95;97561.48;109690;1250;67480;-68
2022/06/29 05:56:44;;;;;;;7.00;6.20;;;;;;;22.48;55.96;97559.20;110211;1247;60113;-66
2022/06/29 05:59:14;;;;;;;6.20;5.60;;;;;;;22.62;55.39;97555.05;110182;1247;59617;-66
2022/06/29 06:01:42;;;;;;;8.70;7.10;;;;;;;22.79;55.16;97552.48;110141;1247;71892;-66
2022/06/29 06:04:11;;;;;;;7.70;6.90;;;;;;;22.88;54.64;97554.75;110143;1247;67813;-71
2022/06/29 06:06:40;;;;;;;7.60;6.80;;;;;;;22.80;54.19;97553.88;109971;1248;69472;-66
2022/06/29 06:09:10;;;;;;;;;;;;;;;22.75;54.01;97552.08;110182;1247;60040;-69
2022/06/29 06:11:39;;;;;;;6.60;6.00;;;;;;;22.94;54.45;97551.96;110153;1247;59739;-73
2022/06/29 06:14:09;;;;;;;7.00;6.20;;;;;;;23.16;54.15;97550.50;109952;1250;71582;-69
2022/06/29 06:16:38;;;;;;;7.30;6.70;;;;;;;23.38;54.01;97553.83;110156;1247;67805;-66
2022/06/29 06:19:09;;;;;;;7.10;5.70;;;;;;;23.56;53.69;97558.29;109911;1250;68685;-66
2022/06/29 06:21:38;;;;;;;7.00;6.30;;;;;;;23.68;53.54;97557.36;109705;1250;59693;-67
2022/06/29 06:24:07;;;;;;;6.60;5.70;;;;;;;23.91;53.78;97565.45;110195;1247;59696;-70
2022/06/29 06:26:37;;;;;;;7.60;6.30;;;;;;;24.21;52.55;97563.70;110169;1247;71479;-69
2022/06/29 06:29:06;;;;;;;6.50;5.90;;;;;;;24.55;51.58;97566.95;110002;1247;69015;-68
2022/06/29 06:31:36;;;;;;;6.10;5.40;;;;;;;24.91;49.13;97562.79;109987;1248;68680;-67
2022/06/29 06:34:05;;;;;;;5.60;4.80;;;;;;;25.31;47.92;97559.79;110160;1248;59735;-70
2022/06/29 06:36:34;;;;;;;5.00;4.60;;;;;;;25.85;47.22;97559.80;109916;1247;59602;-71
2022/06/29 06:39:03;;;;;;;5.50;5.00;;;;;;;26.37;45.85;97562.04;110121;1247;70796;-69
2022/06/29 06:41:32;;;;;;;6.40;5.80;;;;;;;26.80;45.76;97560.84;110077;1247;67999;-66
2022/06/29 06:44:01;;;;;;;6.90;5.60;;;;;;;27.01;44.60;97554.55;110133;1247;68607;-66
2022/06/29 06:46:30;;;;;;;5.10;4.60;;;;;;;27.26;42.28;97551.41;109897;1247;59745;-65
2022/06/29 06:48:59;;;;;;;4.90;4.50;;;;;;;27.50;41.91;97553.80;110054;1247;59617;-66
2022/06/29 06:51:28;;;;;;;4.90;4.40;;;;;;;27.86;41.41;97549.79;109977;1250;71719;-68
2022/06/29 06:53:57;;;;;;;;;;;;;;;28.13;41.88;97552.87;110108;1249;68696;-67
2022/06/29 06:56:26;;;;;;;4.90;4.50;;;;;;;28.45;41.17;97551.74;110029;1250;68685;-70
2022/06/29 06:58:55;;;;;;;7.00;5.30;;;;;;;28.67;39.81;97549.61;109895;1250;59773;-68
2022/06/29 07:01:24;;;;;;;5.60;5.00;;;;;;;28.44;39.67;97550.09;110076;1249;59777;-71
2022/06/29 07:03:53;;;;;;;;;;;;;;;28.55;39.88;97547.09;109917;1250;71680;-71
2022/06/29 07:06:22;;;;;;;6.90;5.70;;;;;;;28.76;39.68;97550.14;110061;1250;67018;-69
2022/06/29 07:08:53;;;;;;;;;;;;;;;28.93;38.95;97551.40;110057;1249;68635;-69
2022/06/29 07:11:22;;;;;;;5.40;4.60;;;;;;;28.96;39.25;97548.21;110094;1250;59719;-74
2022/06/29 07:13:51;;;;;;;5.40;4.90;;;;;;;29.14;39.28;97547.56;109908;1250;59655;-72
2022/06/29 07:16:20;;;;;;;6.00;5.40;;;;;;;29.25;38.96;97543.80;109835;1250;70796;-72
2022/06/29 07:18:49;;;;;;;5.90;5.40;;;;;;;29.04;37.76;97540.38;109882;1250;68703;-70
2022/06/29 07:21:18;;;;;;;6.00;4.80;;;;;;;29.12;37.76;97544.52;110013;1250;68596;-69
2022/06/29 07:23:47;;;;;;;;;;;;;;;28.85;38.44;97546.77;110005;1249;59704;-75
2022/06/29 07:26:16;;;;;;;;;;;;;;;28.88;38.72;97552.29;110034;1249;59734;-74
2022/06/29 07:28:45;;;;;;;5.90;5.30;;;;;;;28.97;38.57;97550.12;109400;1250;791985;-72
2022/06/29 07:31:14;;;;;;;6.10;5.40;;;;;;;29.12;38.21;97550.98;109864;1250;68621;-74
2022/06/29 07:33:43;;;;;;;;;;;;;;;29.24;37.40;97550.52;109920;1250;67825;-68
2022/06/29 07:36:18;;;;;;;6.30;5.50;;;;;;;29.20;37.28;97555.48;110068;1249;59765;-70
2022/06/29 07:38:46;;;;;;;;;;;;;;;29.58;37.25;97555.48;109933;1250;59777;-68
2022/06/29 07:41:15;;;;;;;4.80;4.30;;;;;;;30.03;36.19;97546.77;109990;1250;71570;-72
2022/06/29 07:43:46;;;;;;;5.40;4.90;;;;;;;30.63;35.19;97541.18;109918;1250;68478;-74
2022/06/29 07:46:16;;;;;;;5.60;5.00;;;;;;;30.85;34.52;97542.66;110126;1249;69426;-71
2022/06/29 07:48:45;;;;;;;7.30;4.50;;;;;;;30.88;33.41;97541.41;109955;1250;60120;-68
2022/06/29 07:51:14;;;;;;;6.00;4.40;;;;;;;30.81;33.85;97539.27;109985;1250;59675;-70
2022/06/29 07:53:43;;;;;;;5.00;4.10;;;;;;;30.98;33.98;97542.38;109876;1250;71341;-70
2022/06/29 07:56:12;;;;;;;4.10;3.80;;;;;;;31.38;33.57;97542.63;109957;1248;69281;-75
2022/06/29 07:58:41;;;;;;;;;;;;;;;31.87;33.20;97542.41;109889;1250;70062;-74
2022/06/29 08:01:09;;;;;;;;;;;;;;;31.82;31.91;97542.44;109884;1248;59707;-73
2022/06/29 08:03:38;;;;;;;;;;;;;;;31.87;32.03;97537.34;110078;1250;59644;-75
2022/06/29 08:06:07;;;;;;;;;;;;;;;31.70;32.17;97539.02;109945;1250;71848;-71
2022/06/29 08:08:36;;;;;;;;;;;;;;;31.89;31.30;97535.52;109924;1250;68714;-67
2022/06/29 08:11:06;;;;;;;4.10;3.50;;;;;;;32.31;31.13;97528.75;109943;1250;69243;-70
2022/06/29 08:13:38;;;;;;;5.10;3.90;;;;;;;32.92;30.46;97522.14;110102;1249;59719;-69
2022/06/29 08:16:08;;;;;;;4.10;3.70;;;;;;;33.38;28.87;97518.73;110072;1249;59679;-69
2022/06/29 08:18:37;;;;;;;4.80;4.30;;;;;;;33.78;28.90;97521.13;109666;1250;71880;-66
2022/06/29 08:21:06;;;;;;;5.00;4.50;;;;;;;33.31;28.95;97513.77;110027;1250;68672;-68
2022/06/29 08:23:35;;;;;;;4.90;4.10;;;;;;;33.20;28.47;97507.36;109916;1250;69292;-68
2022/06/29 08:26:10;;;;;;;5.90;3.70;;;;;;;33.43;28.79;97506.00;109930;1250;59699;-75
2022/06/29 08:29:00;;;;;;;4.90;3.40;;;;;;;33.56;27.09;97504.66;109756;1250;59644;-74
2022/06/29 08:31:30;;;;;;;3.70;3.30;;;;;;;33.58;27.15;97506.80;109689;1250;70900;-73
2022/06/29 08:34:02;;;;;;;3.80;3.40;;;;;;;33.70;26.77;97504.57;109938;1250;68689;-76
2022/06/29 08:36:31;;;;;;;4.30;3.10;;;;;;;33.46;26.02;97501.79;109992;1250;69449;-73
2022/06/29 08:39:18;;;;;;;4.60;2.90;;;;;;;33.47;26.31;97501.27;109884;1250;59746;-74
2022/06/29 08:41:48;;;;;;;4.50;3.20;;;;;;;33.89;26.44;97498.73;109897;1250;59751;-75
2022/06/29 08:44:17;;;;;;;4.20;3.10;;;;;;;34.07;24.49;97494.98;109893;1250;71848;-73
2022/06/29 08:46:46;;;;;;;3.10;2.80;;;;;;;34.01;24.29;97500.02;109907;1250;67849;-75
2022/06/29 08:49:17;;;;;;;2.80;2.50;;;;;;;34.06;23.78;97501.16;109927;1247;70048;-72
2022/06/29 08:51:46;;;;;;;4.10;2.90;;;;;;;34.11;23.91;97496.86;109928;1249;59699;-74
2022/06/29 08:54:17;;;;;;;3.20;2.70;;;;;;;34.19;23.31;97494.80;110021;1248;59757;-74
2022/06/29 08:56:48;;;;;;;4.40;3.10;;;;;;;34.08;23.41;97487.65;110150;1249;70596;-70
2022/06/29 08:59:24;;;;;;;3.80;3.40;;;;;;;34.09;24.54;97490.18;109986;1248;68614;-70
2022/06/29 09:02:15;;;;;;;5.10;3.10;;;;;;;33.86;24.50;97484.66;109979;1250;68765;-75
2022/06/29 09:04:44;;;;;;;3.90;3.10;;;;;;;33.26;25.03;97485.87;109977;1250;59827;-73
2022/06/29 09:07:13;;;;;;;4.80;3.30;;;;;;;33.05;25.25;97489.70;109916;1250;59621;-72
2022/06/29 09:10:05;;;;;;;4.80;3.00;;;;;;;33.07;25.44;97492.05;110116;1249;70594;-68
2022/06/29 09:12:35;;;;;;;4.10;2.90;;;;;;;33.23;25.96;97490.99;110123;1250;68613;-71
2022/06/29 09:15:07;;;;;;;2.80;2.50;;;;;;;33.53;24.58;97488.11;110198;1249;69498;-70
2022/06/29 09:17:37;;;;;;;4.50;2.80;;;;;;;33.83;24.51;97485.61;110121;1249;59764;-73
2022/06/29 09:20:07;;;;;;;3.40;2.90;;;;;;;34.22;24.27;97487.33;109878;1250;59715;-70
2022/06/29 09:23:00;;;;;;;4.10;3.10;;;;;;;34.46;23.60;97483.24;109942;1250;70123;-68
2022/06/29 09:25:32;;;;;;;4.10;2.80;;;;;;;35.03;23.30;97489.34;110061;1249;68633;-70
2022/06/29 09:28:00;;;;;;;3.40;3.10;;;;;;;35.64;23.35;97487.41;109972;1250;68901;-72
2022/06/29 09:30:35;;;;;;;4.60;3.20;;;;;;;35.93;22.35;97488.36;109813;1250;59702;-74
2022/06/29 09:33:06;;;;;;;4.90;2.80;;;;;;;35.93;22.08;97490.58;109891;1250;59748;-69
2022/06/29 09:35:38;;;;;;;3.50;2.70;;;;;;;36.17;22.37;97478.51;110004;1250;71589;-74
2022/06/29 09:38:19;;;;;;;3.20;2.90;;;;;;;36.22;22.29;97470.05;110051;1250;67924;-72
2022/06/29 09:41:06;;;;;;;3.60;3.10;;;;;;;36.22;22.20;97473.88;110014;1250;69580;-66
2022/06/29 09:43:37;;;;;;;3.40;2.70;;;;;;;35.74;22.38;97476.49;110053;1249;59777;-73
2022/06/29 09:46:08;;;;;;;4.10;3.30;;;;;;;35.74;22.74;97479.76;109914;1250;59767;-68
2022/06/29 09:48:39;;;;;;;4.10;3.20;;;;;;;35.73;22.87;97475.02;110138;1250;71563;-70
2022/06/29 09:54:06;;;;;;;4.00;3.10;;;;;;;35.88;22.54;97469.33;110057;1247;69976;-68
2022/06/29 09:56:41;;;;;;;3.70;3.10;;;;;;;34.86;22.74;97473.23;110068;1250;59764;-69
2022/06/29 09:59:13;;;;;;;3.70;2.90;;;;;;;34.95;22.13;97469.81;110024;1248;59741;-73
2022/06/29 10:04:32;;;;;;;3.80;3.10;;;;;;;34.47;23.53;97469.15;110153;1247;68834;-68
2022/06/29 10:07:03;;;;;;;3.40;3.10;;;;;;;34.57;23.64;97467.95;110174;1247;69525;-72
2022/06/29 10:09:32;;;;;;;5.20;3.20;;;;;;;34.86;23.83;97470.10;109991;1250;60185;-71
2022/06/29 10:15:13;;;;;;;4.20;2.90;;;;;;;35.31;22.04;97463.33;110139;1249;71621;-69
2022/06/29 10:17:58;;;;;;;3.70;3.20;;;;;;;35.08;22.13;97461.23;109751;1250;68847;-73
2022/06/29 10:20:41;;;;;;;3.60;2.60;;;;;;;35.19;22.95;97461.85;109925;1250;70148;-66
2022/06/29 10:23:49;;;;;;;3.50;3.10;;;;;;;35.36;23.43;97464.77;110003;1248;59759;-71
2022/06/29 10:26:31;;;;;;;2.80;2.50;;;;;;;35.72;22.27;97466.44;110152;1248;59809;-67
2022/06/29 10:29:09;;;;;;;2.70;2.30;;;;;;;35.88;22.10;97460.83;110147;1247;70892;-69
2022/06/29 10:31:54;;;;;;;3.20;2.90;;;;;;;35.99;22.53;97459.16;109977;1247;67936;-72
2022/06/29 10:34:31;;;;;;;4.10;2.60;;;;;;;35.96;22.09;97459.92;110186;1248;68782;-74
2022/06/29 10:37:12;;;;;;;3.00;2.60;;;;;;;35.75;21.22;97458.71;110156;1247;59747;-72
2022/06/29 10:39:50;;;;;;;4.10;2.60;;;;;;;35.89;21.42;97451.85;110107;1250;59678;-74
2022/06/29 10:45:14;;;;;;;3.50;2.40;;;;;;;35.49;20.86;97452.23;110121;1248;67858;-72
2022/06/29 10:47:55;;;;;;;3.20;2.60;;;;;;;35.79;21.93;97446.91;110124;1247;69593;-68
2022/06/29 10:50:26;;;;;;;3.10;2.60;;;;;;;35.86;20.87;97444.46;110158;1247;59754;-74
2022/06/29 10:53:04;;;;;;;4.50;2.30;;;;;;;35.96;21.77;97438.32;110013;1250;59737;-74
2022/06/29 10:55:35;;;;;;;4.10;2.50;;;;;;;36.07;21.26;97432.39;110222;1247;70750;-73
2022/06/29 10:58:05;;;;;;;2.80;2.20;;;;;;;36.09;21.09;97426.45;110160;1247;67789;-68
2022/06/29 11:00:38;;;;;;;2.80;2.50;;;;;;;36.11;21.15;97429.64;110164;1247;69235;-70
2022/06/29 11:03:10;;;;;;;3.30;2.40;;;;;;;36.07;20.71;97428.04;110141;1248;59763;-73
2022/06/29 11:16:56;;;;;;;3.00;2.60;;;;;;;34.24;20.83;97414.75;110055;1249;59647;-74
2022/06/29 11:19:31;;;;;;;3.20;2.40;;;;;;;34.05;21.35;97406.63;110009;1249;59721;-74
2022/06/29 11:22:18;;;;;;;4.70;2.60;;;;;;;34.34;21.33;97410.20;110212;1247;70769;-72
2022/06/29 11:24:54;;;;;;;2.60;2.10;;;;;;;34.53;20.71;97409.86;110224;1247;68781;-74
2022/06/29 11:27:38;;;;;;;3.20;2.10;;;;;;;34.55;19.70;97410.27;110178;1247;69488;-72
2022/06/29 11:30:10;;;;;;;2.70;2.10;;;;;;;34.54;19.94;97408.02;109937;1248;59813;-67
2022/06/29 11:32:48;;;;;;;3.40;2.60;;;;;;;34.55;20.22;97407.27;109963;1248;59732;-70
2022/06/29 11:35:22;;;;;;;3.50;2.60;;;;;;;34.33;19.45;97404.82;109998;1250;70114;-74
2022/06/29 11:38:01;;;;;;;2.80;2.20;;;;;;;34.42;19.37;97403.89;110189;1247;68622;-70
2022/06/29 11:40:42;;;;;;;2.80;2.50;;;;;;;34.55;20.55;97402.80;110151;1247;69293;-72
2022/06/29 11:43:14;;;;;;;2.90;2.30;;;;;;;35.10;20.70;97398.53;109986;1249;59705;-74
2022/06/29 11:45:51;;;;;;;2.80;1.90;;;;;;;35.33;19.96;97398.83;110225;1247;59755;-69
2022/06/29 11:48:22;;;;;;;3.10;2.10;;;;;;;35.59;20.15;97389.51;110042;1250;71646;-73
2022/06/29 11:50:57;;;;;;;2.70;2.00;;;;;;;35.78;19.82;97385.36;110191;1247;68404;-74
2022/06/29 11:53:43;;;;;;;2.40;2.20;;;;;;;35.97;20.04;97375.55;110141;1248;69462;-72
2022/06/29 11:56:15;;;;;;;2.80;2.10;;;;;;;36.21;19.44;97376.58;109994;1250;59803;-75
2022/06/29 11:58:50;;;;;;;2.40;1.90;;;;;;;36.30;18.53;97378.39;110328;1248;59758;-74
2022/06/29 12:01:21;;;;;;;2.20;2.00;;;;;;;36.61;19.15;97375.73;110198;1247;71694;-75
2022/06/29 12:03:58;;;;;;;3.30;2.30;;;;;;;36.58;19.04;97378.09;109947;1247;68519;-73
2022/06/29 12:06:29;;;;;;;2.70;2.10;;;;;;;36.36;18.83;97368.64;110146;1247;69437;-69
2022/06/29 12:08:58;;;;;;;3.90;2.10;;;;;;;35.79;18.90;97364.52;110071;1249;60261;-75
2022/06/29 12:11:28;;;;;;;4.20;2.50;;;;;;;35.35;18.92;97366.45;110152;1248;59647;-74
2022/06/29 12:13:58;;;;;;;2.80;1.90;;;;;;;34.90;18.98;97367.74;110186;1247;71545;-71
2022/06/29 12:16:27;;;;;;;2.30;2.10;;;;;;;34.69;19.41;97366.06;110146;1248;67920;-70